sensor_id;sensor_type;location;lat;lon;timestamp;P1;durP1;ratioP1;P2;durP2;ratioP2
23242;SDS011;11790;49.578;11.214;2023-12-28T00:00:10;10.80;;;5.65;;
23242;SDS011;11790;49.578;11.214;2023-12-28T00:05:10;11.32;;;5.78;;
23242;SDS011;11790;49.578;11.214;2023-12-28T00:10:10;10.98;;;5.38;;
23242;SDS011;11790;49.578;11.214;2023-12-28T00:15:11;9.20;;;5.05;;
23242;SDS011;11790;49.578;11.214;2023-12-28T00:20:11;7.72;;;4.88;;
23242;SDS011;11790;49.578;11.214;2023-12-28T00:25:12;8.95;;;5.30;;
23242;SDS011;11790;49.578;11.214;2023-12-28T00:30:12;11.75;;;6.75;;
23242;SDS011;11790;49.578;11.214;2023-12-28T00:35:13;11.15;;;5.28;;
23242;SDS011;11790;49.578;11.214;2023-12-28T00:40:13;10.70;;;5.75;;
23242;SDS011;11790;49.578;11.214;2023-12-28T00:45:14;9.32;;;5.78;;
23242;SDS011;11790;49.578;11.214;2023-12-28T00:50:14;8.65;;;5.50;;
23242;SDS011;11790;49.578;11.214;2023-12-28T00:55:17;10.60;;;6.40;;
23242;SDS011;11790;49.578;11.214;2023-12-28T01:00:17;8.65;;;5.75;;
23242;SDS011;11790;49.578;11.214;2023-12-28T01:05:17;10.48;;;5.85;;
23242;SDS011;11790;49.578;11.214;2023-12-28T01:10:17;10.35;;;5.90;;
23242;SDS011;11790;49.578;11.214;2023-12-28T01:15:18;13.23;;;6.22;;
23242;SDS011;11790;49.578;11.214;2023-12-28T01:20:20;9.05;;;5.78;;
23242;SDS011;11790;49.578;11.214;2023-12-28T01:25:20;9.57;;;5.80;;
23242;SDS011;11790;49.578;11.214;2023-12-28T01:30:20;12.35;;;6.38;;
23242;SDS011;11790;49.578;11.214;2023-12-28T01:35:20;13.65;;;6.05;;
23242;SDS011;11790;49.578;11.214;2023-12-28T01:40:21;9.68;;;5.93;;
23242;SDS011;11790;49.578;11.214;2023-12-28T01:45:21;11.52;;;5.50;;
23242;SDS011;11790;49.578;11.214;2023-12-28T01:50:21;12.18;;;6.07;;
23242;SDS011;11790;49.578;11.214;2023-12-28T01:55:24;11.35;;;5.72;;
23242;SDS011;11790;49.578;11.214;2023-12-28T02:00:24;10.70;;;5.97;;
23242;SDS011;11790;49.578;11.214;2023-12-28T02:05:24;12.98;;;5.97;;
23242;SDS011;11790;49.578;11.214;2023-12-28T02:10:25;11.88;;;5.80;;
23242;SDS011;11790;49.578;11.214;2023-12-28T02:15:25;10.57;;;6.32;;
23242;SDS011;11790;49.578;11.214;2023-12-28T02:20:26;12.07;;;6.40;;
23242;SDS011;11790;49.578;11.214;2023-12-28T02:25:28;14.48;;;7.05;;
23242;SDS011;11790;49.578;11.214;2023-12-28T02:30:28;11.00;;;6.47;;
23242;SDS011;11790;49.578;11.214;2023-12-28T02:35:32;10.23;;;5.70;;
23242;SDS011;11790;49.578;11.214;2023-12-28T02:40:36;10.85;;;4.90;;
23242;SDS011;11790;49.578;11.214;2023-12-28T02:45:37;7.93;;;4.75;;
23242;SDS011;11790;49.578;11.214;2023-12-28T02:50:37;7.70;;;5.00;;
23242;SDS011;11790;49.578;11.214;2023-12-28T02:55:38;9.18;;;4.63;;
23242;SDS011;11790;49.578;11.214;2023-12-28T03:00:38;5.95;;;4.05;;
23242;SDS011;11790;49.578;11.214;2023-12-28T03:05:38;7.28;;;4.65;;
23242;SDS011;11790;49.578;11.214;2023-12-28T03:10:39;7.45;;;4.43;;
23242;SDS011;11790;49.578;11.214;2023-12-28T03:15:39;7.65;;;4.85;;
23242;SDS011;11790;49.578;11.214;2023-12-28T03:20:39;9.57;;;5.60;;
23242;SDS011;11790;49.578;11.214;2023-12-28T03:25:39;9.35;;;5.00;;
23242;SDS011;11790;49.578;11.214;2023-12-28T03:30:39;10.02;;;4.60;;
23242;SDS011;11790;49.578;11.214;2023-12-28T03:35:39;5.97;;;4.40;;
23242;SDS011;11790;49.578;11.214;2023-12-28T03:40:40;7.28;;;4.35;;
23242;SDS011;11790;49.578;11.214;2023-12-28T03:45:40;7.70;;;4.63;;
23242;SDS011;11790;49.578;11.214;2023-12-28T03:50:40;8.18;;;4.10;;
23242;SDS011;11790;49.578;11.214;2023-12-28T03:55:40;11.10;;;4.43;;
23242;SDS011;11790;49.578;11.214;2023-12-28T04:00:40;9.32;;;4.30;;
23242;SDS011;11790;49.578;11.214;2023-12-28T04:05:41;6.45;;;3.80;;
23242;SDS011;11790;49.578;11.214;2023-12-28T04:10:42;7.78;;;4.47;;
23242;SDS011;11790;49.578;11.214;2023-12-28T04:15:42;6.97;;;4.15;;
23242;SDS011;11790;49.578;11.214;2023-12-28T04:20:43;7.60;;;4.13;;
23242;SDS011;11790;49.578;11.214;2023-12-28T04:25:44;7.95;;;4.30;;
23242;SDS011;11790;49.578;11.214;2023-12-28T04:30:44;5.43;;;3.70;;
23242;SDS011;11790;49.578;11.214;2023-12-28T04:35:45;7.68;;;4.00;;
23242;SDS011;11790;49.578;11.214;2023-12-28T04:40:45;7.32;;;4.03;;
23242;SDS011;11790;49.578;11.214;2023-12-28T04:45:45;6.43;;;3.80;;
23242;SDS011;11790;49.578;11.214;2023-12-28T04:50:46;8.15;;;3.97;;
23242;SDS011;11790;49.578;11.214;2023-12-28T04:55:46;8.10;;;3.85;;
23242;SDS011;11790;49.578;11.214;2023-12-28T05:00:46;6.03;;;3.25;;
23242;SDS011;11790;49.578;11.214;2023-12-28T05:05:46;5.20;;;3.25;;
23242;SDS011;11790;49.578;11.214;2023-12-28T05:10:47;7.85;;;3.72;;
23242;SDS011;11790;49.578;11.214;2023-12-28T05:15:47;5.22;;;3.10;;
23242;SDS011;11790;49.578;11.214;2023-12-28T05:20:47;5.13;;;3.10;;
23242;SDS011;11790;49.578;11.214;2023-12-28T05:25:47;6.35;;;3.38;;
23242;SDS011;11790;49.578;11.214;2023-12-28T05:30:48;5.65;;;3.40;;
23242;SDS011;11790;49.578;11.214;2023-12-28T05:35:48;5.90;;;3.53;;
23242;SDS011;11790;49.578;11.214;2023-12-28T05:40:48;5.97;;;3.38;;
23242;SDS011;11790;49.578;11.214;2023-12-28T05:45:48;6.45;;;3.58;;
23242;SDS011;11790;49.578;11.214;2023-12-28T05:50:48;8.88;;;3.55;;
23242;SDS011;11790;49.578;11.214;2023-12-28T05:55:49;5.57;;;3.35;;
23242;SDS011;11790;49.578;11.214;2023-12-28T06:00:49;4.90;;;3.10;;
23242;SDS011;11790;49.578;11.214;2023-12-28T06:05:49;5.85;;;3.55;;
23242;SDS011;11790;49.578;11.214;2023-12-28T06:10:49;7.35;;;4.03;;
23242;SDS011;11790;49.578;11.214;2023-12-28T06:15:49;6.10;;;3.35;;
23242;SDS011;11790;49.578;11.214;2023-12-28T06:20:50;5.40;;;3.17;;
23242;SDS011;11790;49.578;11.214;2023-12-28T06:25:50;6.20;;;3.67;;
23242;SDS011;11790;49.578;11.214;2023-12-28T06:30:50;7.88;;;3.30;;
23242;SDS011;11790;49.578;11.214;2023-12-28T06:35:52;5.55;;;3.50;;
23242;SDS011;11790;49.578;11.214;2023-12-28T06:40:53;6.47;;;3.65;;
23242;SDS011;11790;49.578;11.214;2023-12-28T06:45:53;5.43;;;3.55;;
23242;SDS011;11790;49.578;11.214;2023-12-28T06:50:53;6.65;;;3.38;;
23242;SDS011;11790;49.578;11.214;2023-12-28T06:55:53;4.78;;;2.95;;
23242;SDS011;11790;49.578;11.214;2023-12-28T07:00:53;7.20;;;3.58;;
23242;SDS011;11790;49.578;11.214;2023-12-28T07:05:57;6.05;;;3.20;;
23242;SDS011;11790;49.578;11.214;2023-12-28T07:10:57;9.90;;;4.43;;
23242;SDS011;11790;49.578;11.214;2023-12-28T07:15:57;5.80;;;3.53;;
23242;SDS011;11790;49.578;11.214;2023-12-28T07:20:57;21.92;;;6.68;;
23242;SDS011;11790;49.578;11.214;2023-12-28T07:25:58;13.18;;;6.28;;
23242;SDS011;11790;49.578;11.214;2023-12-28T07:30:58;13.32;;;5.90;;
23242;SDS011;11790;49.578;11.214;2023-12-28T07:35:58;10.45;;;4.60;;
23242;SDS011;11790;49.578;11.214;2023-12-28T07:41:02;11.32;;;5.65;;
23242;SDS011;11790;49.578;11.214;2023-12-28T07:46:03;10.60;;;5.20;;
23242;SDS011;11790;49.578;11.214;2023-12-28T07:51:04;6.80;;;4.47;;
23242;SDS011;11790;49.578;11.214;2023-12-28T07:56:04;7.10;;;4.05;;
23242;SDS011;11790;49.578;11.214;2023-12-28T08:01:09;7.80;;;3.60;;
23242;SDS011;11790;49.578;11.214;2023-12-28T08:06:09;7.45;;;4.13;;
23242;SDS011;11790;49.578;11.214;2023-12-28T08:11:12;7.88;;;3.65;;
23242;SDS011;11790;49.578;11.214;2023-12-28T08:16:12;5.25;;;3.28;;
23242;SDS011;11790;49.578;11.214;2023-12-28T08:21:13;7.15;;;3.50;;
23242;SDS011;11790;49.578;11.214;2023-12-28T08:26:13;5.75;;;3.22;;
23242;SDS011;11790;49.578;11.214;2023-12-28T08:31:13;5.13;;;3.03;;
23242;SDS011;11790;49.578;11.214;2023-12-28T08:36:13;8.27;;;4.03;;
23242;SDS011;11790;49.578;11.214;2023-12-28T08:41:19;6.93;;;4.07;;
23242;SDS011;11790;49.578;11.214;2023-12-28T08:46:20;6.07;;;3.60;;
23242;SDS011;11790;49.578;11.214;2023-12-28T08:51:21;5.55;;;3.33;;
23242;SDS011;11790;49.578;11.214;2023-12-28T08:56:22;5.07;;;3.10;;
23242;SDS011;11790;49.578;11.214;2023-12-28T09:01:23;5.47;;;3.20;;
23242;SDS011;11790;49.578;11.214;2023-12-28T09:06:23;6.10;;;3.40;;
23242;SDS011;11790;49.578;11.214;2023-12-28T09:11:24;7.77;;;4.17;;
23242;SDS011;11790;49.578;11.214;2023-12-28T09:16:24;8.13;;;3.90;;
23242;SDS011;11790;49.578;11.214;2023-12-28T09:21:24;6.03;;;3.75;;
23242;SDS011;11790;49.578;11.214;2023-12-28T09:26:26;8.80;;;4.68;;
23242;SDS011;11790;49.578;11.214;2023-12-28T09:31:26;7.93;;;4.93;;
23242;SDS011;11790;49.578;11.214;2023-12-28T09:36:26;8.65;;;4.38;;
23242;SDS011;11790;49.578;11.214;2023-12-28T09:41:26;6.47;;;4.28;;
23242;SDS011;11790;49.578;11.214;2023-12-28T09:46:26;8.05;;;4.43;;
23242;SDS011;11790;49.578;11.214;2023-12-28T09:51:27;7.73;;;4.30;;
23242;SDS011;11790;49.578;11.214;2023-12-28T09:56:27;7.47;;;3.90;;
23242;SDS011;11790;49.578;11.214;2023-12-28T10:01:27;7.35;;;4.40;;
23242;SDS011;11790;49.578;11.214;2023-12-28T10:06:27;8.85;;;4.25;;
23242;SDS011;11790;49.578;11.214;2023-12-28T10:11:28;6.75;;;4.40;;
23242;SDS011;11790;49.578;11.214;2023-12-28T10:16:28;8.90;;;4.32;;
23242;SDS011;11790;49.578;11.214;2023-12-28T10:21:28;9.18;;;3.63;;
23242;SDS011;11790;49.578;11.214;2023-12-28T10:26:29;4.43;;;3.13;;
23242;SDS011;11790;49.578;11.214;2023-12-28T10:31:29;8.15;;;3.60;;
23242;SDS011;11790;49.578;11.214;2023-12-28T10:36:29;5.82;;;3.88;;
23242;SDS011;11790;49.578;11.214;2023-12-28T10:41:30;7.53;;;4.18;;
23242;SDS011;11790;49.578;11.214;2023-12-28T10:46:32;9.43;;;3.92;;
23242;SDS011;11790;49.578;11.214;2023-12-28T10:51:33;5.65;;;3.22;;
23242;SDS011;11790;49.578;11.214;2023-12-28T10:56:47;5.95;;;3.55;;
23242;SDS011;11790;49.578;11.214;2023-12-28T11:01:50;6.70;;;3.28;;
23242;SDS011;11790;49.578;11.214;2023-12-28T11:06:51;5.82;;;3.25;;
23242;SDS011;11790;49.578;11.214;2023-12-28T11:11:52;5.70;;;3.13;;
23242;SDS011;11790;49.578;11.214;2023-12-28T11:16:53;9.23;;;3.65;;
23242;SDS011;11790;49.578;11.214;2023-12-28T11:21:53;8.07;;;3.77;;
23242;SDS011;11790;49.578;11.214;2023-12-28T11:26:56;7.00;;;4.45;;
23242;SDS011;11790;49.578;11.214;2023-12-28T11:31:57;7.50;;;4.97;;
23242;SDS011;11790;49.578;11.214;2023-12-28T11:36:58;5.47;;;3.17;;
23242;SDS011;11790;49.578;11.214;2023-12-28T11:42:00;4.75;;;3.42;;
23242;SDS011;11790;49.578;11.214;2023-12-28T11:47:12;7.72;;;3.70;;
23242;SDS011;11790;49.578;11.214;2023-12-28T11:52:25;5.53;;;3.47;;
23242;SDS011;11790;49.578;11.214;2023-12-28T11:57:26;6.95;;;4.18;;
23242;SDS011;11790;49.578;11.214;2023-12-28T12:02:26;5.63;;;3.78;;
23242;SDS011;11790;49.578;11.214;2023-12-28T12:07:26;5.20;;;3.83;;
23242;SDS011;11790;49.578;11.214;2023-12-28T12:12:27;12.02;;;4.40;;
23242;SDS011;11790;49.578;11.214;2023-12-28T12:17:27;6.43;;;4.03;;
23242;SDS011;11790;49.578;11.214;2023-12-28T12:22:27;6.65;;;3.80;;
23242;SDS011;11790;49.578;11.214;2023-12-28T12:27:27;6.13;;;3.97;;
23242;SDS011;11790;49.578;11.214;2023-12-28T12:32:27;10.27;;;5.07;;
23242;SDS011;11790;49.578;11.214;2023-12-28T12:37:28;10.75;;;6.80;;
23242;SDS011;11790;49.578;11.214;2023-12-28T12:42:28;12.75;;;7.93;;
23242;SDS011;11790;49.578;11.214;2023-12-28T12:47:34;9.27;;;5.28;;
23242;SDS011;11790;49.578;11.214;2023-12-28T12:52:38;10.23;;;5.60;;
23242;SDS011;11790;49.578;11.214;2023-12-28T12:57:38;17.80;;;9.38;;
23242;SDS011;11790;49.578;11.214;2023-12-28T13:02:39;18.08;;;10.77;;
23242;SDS011;11790;49.578;11.214;2023-12-28T13:07:39;12.77;;;5.95;;
23242;SDS011;11790;49.578;11.214;2023-12-28T13:12:39;8.07;;;4.53;;
23242;SDS011;11790;49.578;11.214;2023-12-28T13:17:39;14.07;;;6.45;;
23242;SDS011;11790;49.578;11.214;2023-12-28T13:22:40;13.45;;;6.93;;
23242;SDS011;11790;49.578;11.214;2023-12-28T13:27:40;12.75;;;6.88;;
23242;SDS011;11790;49.578;11.214;2023-12-28T13:32:40;11.48;;;5.97;;
23242;SDS011;11790;49.578;11.214;2023-12-28T13:37:40;8.85;;;4.95;;
23242;SDS011;11790;49.578;11.214;2023-12-28T13:42:41;9.63;;;5.30;;
23242;SDS011;11790;49.578;11.214;2023-12-28T13:47:41;9.52;;;5.35;;
23242;SDS011;11790;49.578;11.214;2023-12-28T13:52:41;6.40;;;4.00;;
23242;SDS011;11790;49.578;11.214;2023-12-28T13:57:41;7.97;;;4.07;;
23242;SDS011;11790;49.578;11.214;2023-12-28T14:02:42;8.13;;;4.18;;
23242;SDS011;11790;49.578;11.214;2023-12-28T14:07:43;7.47;;;4.50;;
23242;SDS011;11790;49.578;11.214;2023-12-28T14:12:43;7.18;;;4.22;;
23242;SDS011;11790;49.578;11.214;2023-12-28T14:17:44;9.23;;;5.10;;
23242;SDS011;11790;49.578;11.214;2023-12-28T14:22:44;9.07;;;5.03;;
23242;SDS011;11790;49.578;11.214;2023-12-28T14:27:44;12.80;;;5.57;;
23242;SDS011;11790;49.578;11.214;2023-12-28T14:32:45;14.43;;;6.82;;
23242;SDS011;11790;49.578;11.214;2023-12-28T14:37:45;16.35;;;7.72;;
23242;SDS011;11790;49.578;11.214;2023-12-28T14:42:45;11.23;;;5.90;;
23242;SDS011;11790;49.578;11.214;2023-12-28T14:47:46;15.73;;;6.88;;
23242;SDS011;11790;49.578;11.214;2023-12-28T14:52:46;11.88;;;6.68;;
23242;SDS011;11790;49.578;11.214;2023-12-28T14:57:46;8.82;;;5.55;;
23242;SDS011;11790;49.578;11.214;2023-12-28T15:02:46;13.98;;;6.65;;
23242;SDS011;11790;49.578;11.214;2023-12-28T15:07:48;11.27;;;6.20;;
23242;SDS011;11790;49.578;11.214;2023-12-28T15:12:50;10.50;;;5.57;;
23242;SDS011;11790;49.578;11.214;2023-12-28T15:17:50;9.00;;;4.60;;
23242;SDS011;11790;49.578;11.214;2023-12-28T15:22:51;13.10;;;5.38;;
23242;SDS011;11790;49.578;11.214;2023-12-28T15:27:52;9.18;;;4.72;;
23242;SDS011;11790;49.578;11.214;2023-12-28T15:32:53;9.95;;;6.97;;
23242;SDS011;11790;49.578;11.214;2023-12-28T15:37:54;12.23;;;7.18;;
23242;SDS011;11790;49.578;11.214;2023-12-28T15:42:55;10.57;;;6.50;;
23242;SDS011;11790;49.578;11.214;2023-12-28T15:47:55;8.70;;;5.97;;
23242;SDS011;11790;49.578;11.214;2023-12-28T15:52:55;8.13;;;5.27;;
23242;SDS011;11790;49.578;11.214;2023-12-28T15:57:56;11.98;;;6.53;;
23242;SDS011;11790;49.578;11.214;2023-12-28T16:02:57;13.25;;;6.65;;
23242;SDS011;11790;49.578;11.214;2023-12-28T16:07:57;18.08;;;9.98;;
23242;SDS011;11790;49.578;11.214;2023-12-28T16:12:58;13.75;;;8.00;;
23242;SDS011;11790;49.578;11.214;2023-12-28T16:17:59;12.60;;;6.20;;
23242;SDS011;11790;49.578;11.214;2023-12-28T16:22:59;7.10;;;4.43;;
23242;SDS011;11790;49.578;11.214;2023-12-28T16:27:59;8.33;;;3.40;;
23242;SDS011;11790;49.578;11.214;2023-12-28T16:38:10;4.15;;;2.47;;
23242;SDS011;11790;49.578;11.214;2023-12-28T16:43:10;5.82;;;2.50;;
23242;SDS011;11790;49.578;11.214;2023-12-28T16:48:10;3.85;;;2.30;;
23242;SDS011;11790;49.578;11.214;2023-12-28T16:53:10;6.17;;;2.90;;
23242;SDS011;11790;49.578;11.214;2023-12-28T16:58:11;7.15;;;4.13;;
23242;SDS011;11790;49.578;11.214;2023-12-28T17:03:11;7.60;;;3.60;;
23242;SDS011;11790;49.578;11.214;2023-12-28T17:08:11;8.43;;;4.47;;
23242;SDS011;11790;49.578;11.214;2023-12-28T17:13:12;8.93;;;4.37;;
23242;SDS011;11790;49.578;11.214;2023-12-28T17:18:12;7.70;;;4.72;;
23242;SDS011;11790;49.578;11.214;2023-12-28T17:28:16;8.57;;;5.07;;
23242;SDS011;11790;49.578;11.214;2023-12-28T17:33:19;8.85;;;5.07;;
23242;SDS011;11790;49.578;11.214;2023-12-28T17:38:19;10.02;;;5.65;;
23242;SDS011;11790;49.578;11.214;2023-12-28T17:43:28;9.68;;;5.63;;
23242;SDS011;11790;49.578;11.214;2023-12-28T17:48:31;7.18;;;4.47;;
23242;SDS011;11790;49.578;11.214;2023-12-28T17:53:33;7.90;;;5.07;;
23242;SDS011;11790;49.578;11.214;2023-12-28T17:58:34;9.38;;;5.32;;
23242;SDS011;11790;49.578;11.214;2023-12-28T18:03:34;8.30;;;4.90;;
23242;SDS011;11790;49.578;11.214;2023-12-28T18:08:34;11.18;;;5.40;;
23242;SDS011;11790;49.578;11.214;2023-12-28T18:13:34;8.95;;;5.47;;
23242;SDS011;11790;49.578;11.214;2023-12-28T18:18:35;9.02;;;5.80;;
23242;SDS011;11790;49.578;11.214;2023-12-28T18:23:35;15.98;;;8.82;;
23242;SDS011;11790;49.578;11.214;2023-12-28T18:28:36;15.80;;;6.88;;
23242;SDS011;11790;49.578;11.214;2023-12-28T18:33:36;9.57;;;6.10;;
23242;SDS011;11790;49.578;11.214;2023-12-28T18:38:36;8.20;;;5.85;;
23242;SDS011;11790;49.578;11.214;2023-12-28T18:43:36;8.40;;;5.33;;
23242;SDS011;11790;49.578;11.214;2023-12-28T18:48:36;9.80;;;5.85;;
23242;SDS011;11790;49.578;11.214;2023-12-28T18:53:37;8.75;;;6.13;;
23242;SDS011;11790;49.578;11.214;2023-12-28T18:58:37;13.10;;;7.43;;
23242;SDS011;11790;49.578;11.214;2023-12-28T19:03:37;11.35;;;6.30;;
23242;SDS011;11790;49.578;11.214;2023-12-28T19:08:37;9.43;;;6.73;;
23242;SDS011;11790;49.578;11.214;2023-12-28T19:13:38;11.30;;;7.00;;
23242;SDS011;11790;49.578;11.214;2023-12-28T19:18:38;10.97;;;6.97;;
23242;SDS011;11790;49.578;11.214;2023-12-28T19:23:38;17.20;;;9.85;;
23242;SDS011;11790;49.578;11.214;2023-12-28T19:28:38;12.80;;;8.30;;
23242;SDS011;11790;49.578;11.214;2023-12-28T19:33:39;13.00;;;8.17;;
23242;SDS011;11790;49.578;11.214;2023-12-28T19:38:39;18.63;;;9.80;;
23242;SDS011;11790;49.578;11.214;2023-12-28T19:43:39;15.00;;;8.55;;
23242;SDS011;11790;49.578;11.214;2023-12-28T19:48:41;12.32;;;7.50;;
23242;SDS011;11790;49.578;11.214;2023-12-28T19:53:41;11.88;;;6.82;;
23242;SDS011;11790;49.578;11.214;2023-12-28T19:58:41;9.90;;;6.57;;
23242;SDS011;11790;49.578;11.214;2023-12-28T20:03:42;12.45;;;8.02;;
23242;SDS011;11790;49.578;11.214;2023-12-28T20:08:42;14.85;;;8.90;;
23242;SDS011;11790;49.578;11.214;2023-12-28T20:13:42;18.75;;;9.77;;
23242;SDS011;11790;49.578;11.214;2023-12-28T20:18:42;13.05;;;7.18;;
23242;SDS011;11790;49.578;11.214;2023-12-28T20:23:43;10.40;;;6.35;;
23242;SDS011;11790;49.578;11.214;2023-12-28T20:28:43;9.60;;;5.97;;
23242;SDS011;11790;49.578;11.214;2023-12-28T20:33:43;11.45;;;6.43;;
23242;SDS011;11790;49.578;11.214;2023-12-28T20:38:43;10.40;;;6.05;;
23242;SDS011;11790;49.578;11.214;2023-12-28T20:43:44;12.05;;;7.55;;
23242;SDS011;11790;49.578;11.214;2023-12-28T20:48:44;12.23;;;7.38;;
23242;SDS011;11790;49.578;11.214;2023-12-28T20:53:45;13.18;;;7.30;;
23242;SDS011;11790;49.578;11.214;2023-12-28T20:58:45;15.40;;;7.63;;
23242;SDS011;11790;49.578;11.214;2023-12-28T21:03:47;12.93;;;7.57;;
23242;SDS011;11790;49.578;11.214;2023-12-28T21:08:47;12.70;;;7.20;;
23242;SDS011;11790;49.578;11.214;2023-12-28T21:13:47;10.18;;;6.28;;
23242;SDS011;11790;49.578;11.214;2023-12-28T21:18:49;10.07;;;6.90;;
23242;SDS011;11790;49.578;11.214;2023-12-28T21:23:49;11.55;;;5.55;;
23242;SDS011;11790;49.578;11.214;2023-12-28T21:28:51;8.55;;;4.97;;
23242;SDS011;11790;49.578;11.214;2023-12-28T21:33:51;8.52;;;4.70;;
23242;SDS011;11790;49.578;11.214;2023-12-28T21:38:51;8.87;;;5.47;;
23242;SDS011;11790;49.578;11.214;2023-12-28T21:43:51;9.25;;;5.65;;
23242;SDS011;11790;49.578;11.214;2023-12-28T21:48:52;9.55;;;5.43;;
23242;SDS011;11790;49.578;11.214;2023-12-28T21:53:52;11.53;;;5.40;;
23242;SDS011;11790;49.578;11.214;2023-12-28T21:58:52;9.82;;;5.30;;
23242;SDS011;11790;49.578;11.214;2023-12-28T22:03:52;12.07;;;5.28;;
23242;SDS011;11790;49.578;11.214;2023-12-28T22:08:52;7.47;;;4.88;;
23242;SDS011;11790;49.578;11.214;2023-12-28T22:13:53;6.93;;;4.70;;
23242;SDS011;11790;49.578;11.214;2023-12-28T22:18:53;8.85;;;5.10;;
23242;SDS011;11790;49.578;11.214;2023-12-28T22:23:53;9.45;;;4.93;;
23242;SDS011;11790;49.578;11.214;2023-12-28T22:28:53;6.22;;;4.40;;
23242;SDS011;11790;49.578;11.214;2023-12-28T22:33:54;10.40;;;4.75;;
23242;SDS011;11790;49.578;11.214;2023-12-28T22:38:54;8.00;;;4.57;;
23242;SDS011;11790;49.578;11.214;2023-12-28T22:43:54;9.23;;;4.45;;
23242;SDS011;11790;49.578;11.214;2023-12-28T22:48:54;10.32;;;4.53;;
23242;SDS011;11790;49.578;11.214;2023-12-28T22:53:54;7.28;;;4.68;;
23242;SDS011;11790;49.578;11.214;2023-12-28T22:58:54;7.13;;;4.30;;
23242;SDS011;11790;49.578;11.214;2023-12-28T23:03:55;8.20;;;4.90;;
23242;SDS011;11790;49.578;11.214;2023-12-28T23:08:55;6.40;;;4.57;;
23242;SDS011;11790;49.578;11.214;2023-12-28T23:13:55;10.77;;;4.72;;
23242;SDS011;11790;49.578;11.214;2023-12-28T23:18:55;8.30;;;4.90;;
23242;SDS011;11790;49.578;11.214;2023-12-28T23:23:56;6.35;;;4.60;;
23242;SDS011;11790;49.578;11.214;2023-12-28T23:28:56;6.85;;;4.30;;
23242;SDS011;11790;49.578;11.214;2023-12-28T23:33:56;8.77;;;4.45;;
23242;SDS011;11790;49.578;11.214;2023-12-28T23:38:57;6.85;;;4.07;;
23242;SDS011;11790;49.578;11.214;2023-12-28T23:43:57;7.80;;;4.25;;
23242;SDS011;11790;49.578;11.214;2023-12-28T23:48:57;7.10;;;4.00;;
23242;SDS011;11790;49.578;11.214;2023-12-28T23:53:57;4.95;;;3.78;;
23242;SDS011;11790;49.578;11.214;2023-12-28T23:58:57;4.47;;;3.35;;
